sensor_id;sensor_type;location;lat;lon;timestamp;P1;durP1;ratioP1;P2;durP2;ratioP2
3369;SDS011;42042;51.948;7.628;2023-05-10T00:01:45;6.30;;;5.47;;
3369;SDS011;42042;51.948;7.628;2023-05-10T00:04:12;6.20;;;5.60;;
3369;SDS011;42042;51.948;7.628;2023-05-10T00:06:41;7.23;;;6.53;;
3369;SDS011;42042;51.948;7.628;2023-05-10T00:09:08;8.30;;;6.30;;
3369;SDS011;42042;51.948;7.628;2023-05-10T00:11:35;8.50;;;5.87;;
3369;SDS011;42042;51.948;7.628;2023-05-10T00:14:02;8.33;;;7.30;;
3369;SDS011;42042;51.948;7.628;2023-05-10T00:16:29;8.23;;;6.97;;
3369;SDS011;42042;51.948;7.628;2023-05-10T00:18:56;9.00;;;7.57;;
3369;SDS011;42042;51.948;7.628;2023-05-10T00:21:24;10.13;;;7.50;;
3369;SDS011;42042;51.948;7.628;2023-05-10T00:23:54;9.57;;;7.33;;
3369;SDS011;42042;51.948;7.628;2023-05-10T00:26:21;12.33;;;8.00;;
3369;SDS011;42042;51.948;7.628;2023-05-10T00:28:48;8.47;;;7.60;;
3369;SDS011;42042;51.948;7.628;2023-05-10T00:31:16;8.47;;;7.63;;
3369;SDS011;42042;51.948;7.628;2023-05-10T00:33:43;10.57;;;8.70;;
3369;SDS011;42042;51.948;7.628;2023-05-10T00:36:10;11.37;;;9.47;;
3369;SDS011;42042;51.948;7.628;2023-05-10T00:38:37;10.60;;;7.87;;
3369;SDS011;42042;51.948;7.628;2023-05-10T00:41:06;11.00;;;8.97;;
3369;SDS011;42042;51.948;7.628;2023-05-10T00:43:33;12.07;;;8.40;;
3369;SDS011;42042;51.948;7.628;2023-05-10T00:46:01;8.53;;;7.30;;
3369;SDS011;42042;51.948;7.628;2023-05-10T00:48:28;10.50;;;8.40;;
3369;SDS011;42042;51.948;7.628;2023-05-10T00:50:55;8.63;;;7.83;;
3369;SDS011;42042;51.948;7.628;2023-05-10T00:53:23;10.03;;;8.80;;
3369;SDS011;42042;51.948;7.628;2023-05-10T00:55:50;11.93;;;8.73;;
3369;SDS011;42042;51.948;7.628;2023-05-10T00:58:19;12.53;;;9.03;;
3369;SDS011;42042;51.948;7.628;2023-05-10T01:00:46;10.07;;;8.77;;
3369;SDS011;42042;51.948;7.628;2023-05-10T01:03:13;9.80;;;8.10;;
3369;SDS011;42042;51.948;7.628;2023-05-10T01:05:40;8.97;;;8.07;;
3369;SDS011;42042;51.948;7.628;2023-05-10T01:08:08;10.17;;;8.87;;
3369;SDS011;42042;51.948;7.628;2023-05-10T01:10:35;10.83;;;8.40;;
3369;SDS011;42042;51.948;7.628;2023-05-10T01:13:02;10.23;;;8.60;;
3369;SDS011;42042;51.948;7.628;2023-05-10T01:15:31;9.00;;;7.83;;
3369;SDS011;42042;51.948;7.628;2023-05-10T01:17:58;9.50;;;8.10;;
3369;SDS011;42042;51.948;7.628;2023-05-10T01:20:26;10.27;;;8.00;;
3369;SDS011;42042;51.948;7.628;2023-05-10T01:23:08;10.20;;;8.50;;
3369;SDS011;42042;51.948;7.628;2023-05-10T01:25:42;9.20;;;7.27;;
3369;SDS011;42042;51.948;7.628;2023-05-10T01:31:08;7.30;;;5.03;;
3369;SDS011;42042;51.948;7.628;2023-05-10T01:33:38;6.63;;;5.10;;
3369;SDS011;42042;51.948;7.628;2023-05-10T01:36:08;4.60;;;4.17;;
3369;SDS011;42042;51.948;7.628;2023-05-10T01:38:41;4.40;;;4.00;;
3369;SDS011;42042;51.948;7.628;2023-05-10T01:41:13;6.30;;;4.60;;
3369;SDS011;42042;51.948;7.628;2023-05-10T01:43:43;3.80;;;3.50;;
3369;SDS011;42042;51.948;7.628;2023-05-10T01:46:14;3.07;;;2.67;;
3369;SDS011;42042;51.948;7.628;2023-05-10T01:48:47;3.90;;;3.33;;
3369;SDS011;42042;51.948;7.628;2023-05-10T01:51:15;2.73;;;2.53;;
3369;SDS011;42042;51.948;7.628;2023-05-10T01:53:43;2.87;;;2.67;;
3369;SDS011;42042;51.948;7.628;2023-05-10T01:56:11;3.23;;;2.93;;
3369;SDS011;42042;51.948;7.628;2023-05-10T01:58:39;3.47;;;2.27;;
3369;SDS011;42042;51.948;7.628;2023-05-10T02:01:07;2.40;;;2.20;;
3369;SDS011;42042;51.948;7.628;2023-05-10T02:03:35;1.70;;;1.60;;
3369;SDS011;42042;51.948;7.628;2023-05-10T02:06:04;3.03;;;1.83;;
3369;SDS011;42042;51.948;7.628;2023-05-10T02:08:31;2.00;;;1.70;;
3369;SDS011;42042;51.948;7.628;2023-05-10T02:10:59;3.63;;;2.10;;
3369;SDS011;42042;51.948;7.628;2023-05-10T02:13:27;3.00;;;2.47;;
3369;SDS011;42042;51.948;7.628;2023-05-10T02:15:55;2.80;;;2.50;;
3369;SDS011;42042;51.948;7.628;2023-05-10T02:18:23;3.27;;;2.73;;
3369;SDS011;42042;51.948;7.628;2023-05-10T02:20:51;2.70;;;2.50;;
3369;SDS011;42042;51.948;7.628;2023-05-10T02:23:20;3.10;;;2.53;;
3369;SDS011;42042;51.948;7.628;2023-05-10T02:25:48;4.40;;;3.23;;
3369;SDS011;42042;51.948;7.628;2023-05-10T02:28:16;2.87;;;2.67;;
3369;SDS011;42042;51.948;7.628;2023-05-10T02:30:44;3.87;;;3.53;;
3369;SDS011;42042;51.948;7.628;2023-05-10T02:33:11;3.40;;;3.07;;
3369;SDS011;42042;51.948;7.628;2023-05-10T02:35:38;5.87;;;3.70;;
3369;SDS011;42042;51.948;7.628;2023-05-10T02:38:06;4.37;;;3.73;;
3369;SDS011;42042;51.948;7.628;2023-05-10T02:40:35;4.27;;;3.43;;
3369;SDS011;42042;51.948;7.628;2023-05-10T02:43:03;4.97;;;3.90;;
3369;SDS011;42042;51.948;7.628;2023-05-10T02:45:31;4.67;;;3.50;;
3369;SDS011;42042;51.948;7.628;2023-05-10T02:47:59;3.80;;;3.20;;
3369;SDS011;42042;51.948;7.628;2023-05-10T02:50:27;5.83;;;4.20;;
3369;SDS011;42042;51.948;7.628;2023-05-10T02:52:55;4.37;;;3.97;;
3369;SDS011;42042;51.948;7.628;2023-05-10T02:55:27;5.00;;;4.40;;
3369;SDS011;42042;51.948;7.628;2023-05-10T02:58:00;6.10;;;5.07;;
3369;SDS011;42042;51.948;7.628;2023-05-10T03:00:27;5.30;;;4.80;;
3369;SDS011;42042;51.948;7.628;2023-05-10T03:02:54;6.30;;;5.17;;
3369;SDS011;42042;51.948;7.628;2023-05-10T03:05:22;6.63;;;4.83;;
3369;SDS011;42042;51.948;7.628;2023-05-10T03:07:49;4.60;;;4.20;;
3369;SDS011;42042;51.948;7.628;2023-05-10T03:10:16;5.30;;;4.70;;
3369;SDS011;42042;51.948;7.628;2023-05-10T03:12:47;5.20;;;4.70;;
3369;SDS011;42042;51.948;7.628;2023-05-10T03:15:25;5.37;;;4.87;;
3369;SDS011;42042;51.948;7.628;2023-05-10T03:18:00;7.70;;;4.93;;
3369;SDS011;42042;51.948;7.628;2023-05-10T03:20:29;5.37;;;4.87;;
3369;SDS011;42042;51.948;7.628;2023-05-10T03:22:59;5.47;;;4.97;;
3369;SDS011;42042;51.948;7.628;2023-05-10T03:25:27;6.00;;;5.40;;
3369;SDS011;42042;51.948;7.628;2023-05-10T03:27:55;10.50;;;5.10;;
3369;SDS011;42042;51.948;7.628;2023-05-10T03:30:24;5.17;;;4.67;;
3369;SDS011;42042;51.948;7.628;2023-05-10T03:32:51;5.77;;;4.83;;
3369;SDS011;42042;51.948;7.628;2023-05-10T03:35:19;7.37;;;5.10;;
3369;SDS011;42042;51.948;7.628;2023-05-10T03:37:46;5.50;;;4.47;;
3369;SDS011;42042;51.948;7.628;2023-05-10T03:40:13;5.00;;;4.50;;
3369;SDS011;42042;51.948;7.628;2023-05-10T03:42:41;6.03;;;5.00;;
3369;SDS011;42042;51.948;7.628;2023-05-10T03:45:08;8.80;;;6.03;;
3369;SDS011;42042;51.948;7.628;2023-05-10T03:47:37;6.20;;;5.17;;
3369;SDS011;42042;51.948;7.628;2023-05-10T03:50:05;5.90;;;5.00;;
3369;SDS011;42042;51.948;7.628;2023-05-10T03:52:32;6.03;;;5.40;;
3369;SDS011;42042;51.948;7.628;2023-05-10T03:54:59;5.90;;;4.80;;
3369;SDS011;42042;51.948;7.628;2023-05-10T03:57:28;5.10;;;4.40;;
3369;SDS011;42042;51.948;7.628;2023-05-10T03:59:55;6.90;;;5.57;;
3369;SDS011;42042;51.948;7.628;2023-05-10T04:02:22;7.03;;;5.83;;
3369;SDS011;42042;51.948;7.628;2023-05-10T04:04:51;6.50;;;5.37;;
3369;SDS011;42042;51.948;7.628;2023-05-10T04:07:18;6.87;;;6.20;;
3369;SDS011;42042;51.948;7.628;2023-05-10T04:09:46;6.70;;;6.10;;
3369;SDS011;42042;51.948;7.628;2023-05-10T04:12:13;6.73;;;5.50;;
3369;SDS011;42042;51.948;7.628;2023-05-10T04:14:40;8.00;;;4.93;;
3369;SDS011;42042;51.948;7.628;2023-05-10T04:17:07;5.83;;;5.23;;
3369;SDS011;42042;51.948;7.628;2023-05-10T04:19:35;6.10;;;5.20;;
3369;SDS011;42042;51.948;7.628;2023-05-10T04:22:03;5.43;;;4.83;;
3369;SDS011;42042;51.948;7.628;2023-05-10T04:24:31;6.40;;;5.77;;
3369;SDS011;42042;51.948;7.628;2023-05-10T04:26:58;8.03;;;6.10;;
3369;SDS011;42042;51.948;7.628;2023-05-10T04:29:25;6.17;;;5.57;;
3369;SDS011;42042;51.948;7.628;2023-05-10T04:31:52;11.20;;;6.10;;
3369;SDS011;42042;51.948;7.628;2023-05-10T04:34:21;7.27;;;6.40;;
3369;SDS011;42042;51.948;7.628;2023-05-10T04:36:48;6.73;;;6.03;;
3369;SDS011;42042;51.948;7.628;2023-05-10T04:39:17;7.27;;;6.00;;
3369;SDS011;42042;51.948;7.628;2023-05-10T04:41:44;8.50;;;6.60;;
3369;SDS011;42042;51.948;7.628;2023-05-10T04:44:11;8.00;;;6.90;;
3369;SDS011;42042;51.948;7.628;2023-05-10T04:46:38;9.23;;;7.90;;
3369;SDS011;42042;51.948;7.628;2023-05-10T04:49:05;11.67;;;8.43;;
3369;SDS011;42042;51.948;7.628;2023-05-10T04:51:33;13.07;;;9.07;;
3369;SDS011;42042;51.948;7.628;2023-05-10T04:54:00;12.20;;;9.73;;
3369;SDS011;42042;51.948;7.628;2023-05-10T04:56:28;11.27;;;8.93;;
3369;SDS011;42042;51.948;7.628;2023-05-10T04:58:56;12.40;;;9.73;;
3369;SDS011;42042;51.948;7.628;2023-05-10T05:01:23;13.73;;;10.00;;
3369;SDS011;42042;51.948;7.628;2023-05-10T05:03:50;14.33;;;9.40;;
3369;SDS011;42042;51.948;7.628;2023-05-10T05:06:17;16.47;;;11.10;;
3369;SDS011;42042;51.948;7.628;2023-05-10T05:08:45;13.90;;;10.60;;
3369;SDS011;42042;51.948;7.628;2023-05-10T05:11:14;14.63;;;10.50;;
3369;SDS011;42042;51.948;7.628;2023-05-10T05:13:42;18.60;;;11.20;;
3369;SDS011;42042;51.948;7.628;2023-05-10T05:16:10;16.83;;;11.80;;
3369;SDS011;42042;51.948;7.628;2023-05-10T05:18:37;18.00;;;12.80;;
3369;SDS011;42042;51.948;7.628;2023-05-10T05:21:12;16.30;;;11.40;;
3369;SDS011;42042;51.948;7.628;2023-05-10T05:23:40;23.10;;;12.40;;
3369;SDS011;42042;51.948;7.628;2023-05-10T05:26:07;20.77;;;12.97;;
3369;SDS011;42042;51.948;7.628;2023-05-10T05:28:34;20.60;;;12.57;;
3369;SDS011;42042;51.948;7.628;2023-05-10T05:31:03;23.27;;;13.60;;
3369;SDS011;42042;51.948;7.628;2023-05-10T05:33:31;22.90;;;14.17;;
3369;SDS011;42042;51.948;7.628;2023-05-10T05:35:59;26.87;;;16.20;;
3369;SDS011;42042;51.948;7.628;2023-05-10T05:38:27;23.77;;;13.80;;
3369;SDS011;42042;51.948;7.628;2023-05-10T05:40:54;29.00;;;14.70;;
3369;SDS011;42042;51.948;7.628;2023-05-10T05:43:21;27.83;;;14.73;;
3369;SDS011;42042;51.948;7.628;2023-05-10T05:45:48;33.33;;;16.70;;
3369;SDS011;42042;51.948;7.628;2023-05-10T05:48:17;26.73;;;16.23;;
3369;SDS011;42042;51.948;7.628;2023-05-10T05:50:44;31.83;;;16.23;;
3369;SDS011;42042;51.948;7.628;2023-05-10T05:53:12;31.03;;;16.37;;
3369;SDS011;42042;51.948;7.628;2023-05-10T05:55:39;32.03;;;17.07;;
3369;SDS011;42042;51.948;7.628;2023-05-10T05:58:06;31.17;;;17.30;;
3369;SDS011;42042;51.948;7.628;2023-05-10T06:00:34;36.53;;;18.70;;
3369;SDS011;42042;51.948;7.628;2023-05-10T06:03:01;41.57;;;18.40;;
3369;SDS011;42042;51.948;7.628;2023-05-10T06:05:30;42.13;;;20.00;;
3369;SDS011;42042;51.948;7.628;2023-05-10T06:07:58;43.47;;;19.27;;
3369;SDS011;42042;51.948;7.628;2023-05-10T06:10:26;42.53;;;19.07;;
3369;SDS011;42042;51.948;7.628;2023-05-10T06:12:53;46.53;;;20.50;;
3369;SDS011;42042;51.948;7.628;2023-05-10T06:15:20;46.90;;;20.57;;
3369;SDS011;42042;51.948;7.628;2023-05-10T06:17:48;38.50;;;19.27;;
3369;SDS011;42042;51.948;7.628;2023-05-10T06:20:15;38.00;;;19.97;;
3369;SDS011;42042;51.948;7.628;2023-05-10T06:22:44;47.13;;;19.97;;
3369;SDS011;42042;51.948;7.628;2023-05-10T06:25:11;43.67;;;19.50;;
3369;SDS011;42042;51.948;7.628;2023-05-10T06:27:39;39.73;;;20.47;;
3369;SDS011;42042;51.948;7.628;2023-05-10T06:30:07;41.77;;;20.83;;
3369;SDS011;42042;51.948;7.628;2023-05-10T06:32:34;49.67;;;22.13;;
3369;SDS011;42042;51.948;7.628;2023-05-10T06:35:01;36.60;;;17.47;;
3369;SDS011;42042;51.948;7.628;2023-05-10T06:37:29;32.40;;;17.80;;
3369;SDS011;42042;51.948;7.628;2023-05-10T06:39:57;30.20;;;16.17;;
3369;SDS011;42042;51.948;7.628;2023-05-10T06:42:24;31.33;;;17.70;;
3369;SDS011;42042;51.948;7.628;2023-05-10T06:44:52;32.70;;;17.17;;
3369;SDS011;42042;51.948;7.628;2023-05-10T06:47:19;28.03;;;15.47;;
3369;SDS011;42042;51.948;7.628;2023-05-10T06:49:47;31.63;;;16.20;;
3369;SDS011;42042;51.948;7.628;2023-05-10T06:52:14;32.77;;;17.20;;
3369;SDS011;42042;51.948;7.628;2023-05-10T06:54:41;32.17;;;16.27;;
3369;SDS011;42042;51.948;7.628;2023-05-10T06:57:10;37.93;;;19.60;;
3369;SDS011;42042;51.948;7.628;2023-05-10T06:59:37;34.10;;;19.20;;
3369;SDS011;42042;51.948;7.628;2023-05-10T07:02:04;42.27;;;19.73;;
3369;SDS011;42042;51.948;7.628;2023-05-10T07:04:32;46.10;;;22.17;;
3369;SDS011;42042;51.948;7.628;2023-05-10T07:06:59;45.57;;;22.43;;
3369;SDS011;42042;51.948;7.628;2023-05-10T07:09:26;43.63;;;22.83;;
3369;SDS011;42042;51.948;7.628;2023-05-10T07:11:53;47.80;;;25.07;;
3369;SDS011;42042;51.948;7.628;2023-05-10T07:14:23;56.17;;;23.67;;
3369;SDS011;42042;51.948;7.628;2023-05-10T07:16:50;47.30;;;21.90;;
3369;SDS011;42042;51.948;7.628;2023-05-10T07:19:17;56.70;;;25.40;;
3369;SDS011;42042;51.948;7.628;2023-05-10T07:21:45;53.73;;;25.47;;
3369;SDS011;42042;51.948;7.628;2023-05-10T07:24:12;61.87;;;27.90;;
3369;SDS011;42042;51.948;7.628;2023-05-10T07:26:39;59.37;;;29.40;;
3369;SDS011;42042;51.948;7.628;2023-05-10T07:29:07;67.70;;;30.53;;
3369;SDS011;42042;51.948;7.628;2023-05-10T07:31:36;60.90;;;29.70;;
3369;SDS011;42042;51.948;7.628;2023-05-10T07:34:03;63.77;;;29.70;;
3369;SDS011;42042;51.948;7.628;2023-05-10T07:36:30;58.70;;;30.07;;
3369;SDS011;42042;51.948;7.628;2023-05-10T07:38:58;62.27;;;30.87;;
3369;SDS011;42042;51.948;7.628;2023-05-10T07:41:25;59.03;;;30.00;;
3369;SDS011;42042;51.948;7.628;2023-05-10T07:43:52;62.60;;;31.30;;
3369;SDS011;42042;51.948;7.628;2023-05-10T07:46:19;54.27;;;29.20;;
3369;SDS011;42042;51.948;7.628;2023-05-10T07:48:48;50.87;;;28.90;;
3369;SDS011;42042;51.948;7.628;2023-05-10T07:51:15;51.83;;;28.33;;
3369;SDS011;42042;51.948;7.628;2023-05-10T07:53:42;45.87;;;29.20;;
3369;SDS011;42042;51.948;7.628;2023-05-10T07:56:22;47.70;;;28.10;;
3369;SDS011;42042;51.948;7.628;2023-05-10T07:58:52;41.83;;;26.40;;
3369;SDS011;42042;51.948;7.628;2023-05-10T08:01:19;42.40;;;26.73;;
3369;SDS011;42042;51.948;7.628;2023-05-10T08:03:48;45.50;;;26.47;;
3369;SDS011;42042;51.948;7.628;2023-05-10T08:06:16;47.00;;;25.37;;
3369;SDS011;42042;51.948;7.628;2023-05-10T08:08:43;44.33;;;26.73;;
3369;SDS011;42042;51.948;7.628;2023-05-10T08:11:14;51.07;;;25.47;;
3369;SDS011;42042;51.948;7.628;2023-05-10T08:13:41;40.53;;;25.13;;
3369;SDS011;42042;51.948;7.628;2023-05-10T08:16:08;38.43;;;24.03;;
3369;SDS011;42042;51.948;7.628;2023-05-10T08:18:36;46.37;;;26.40;;
3369;SDS011;42042;51.948;7.628;2023-05-10T08:21:05;44.23;;;26.57;;
3369;SDS011;42042;51.948;7.628;2023-05-10T08:23:32;45.23;;;23.80;;
3369;SDS011;42042;51.948;7.628;2023-05-10T08:25:59;46.47;;;25.80;;
3369;SDS011;42042;51.948;7.628;2023-05-10T08:28:27;40.90;;;24.70;;
3369;SDS011;42042;51.948;7.628;2023-05-10T08:30:54;42.93;;;23.83;;
3369;SDS011;42042;51.948;7.628;2023-05-10T08:33:21;40.23;;;23.80;;
3369;SDS011;42042;51.948;7.628;2023-05-10T08:35:48;39.23;;;24.00;;
3369;SDS011;42042;51.948;7.628;2023-05-10T08:38:17;35.67;;;25.00;;
3369;SDS011;42042;51.948;7.628;2023-05-10T08:40:44;39.57;;;22.90;;
3369;SDS011;42042;51.948;7.628;2023-05-10T08:43:12;39.70;;;24.50;;
3369;SDS011;42042;51.948;7.628;2023-05-10T08:45:41;35.30;;;23.90;;
3369;SDS011;42042;51.948;7.628;2023-05-10T08:48:09;37.83;;;25.83;;
3369;SDS011;42042;51.948;7.628;2023-05-10T08:50:37;35.50;;;22.47;;
3369;SDS011;42042;51.948;7.628;2023-05-10T08:53:05;32.20;;;20.70;;
3369;SDS011;42042;51.948;7.628;2023-05-10T08:55:34;41.80;;;23.50;;
3369;SDS011;42042;51.948;7.628;2023-05-10T08:58:03;30.53;;;22.00;;
3369;SDS011;42042;51.948;7.628;2023-05-10T09:00:31;32.47;;;19.93;;
3369;SDS011;42042;51.948;7.628;2023-05-10T09:02:58;35.73;;;20.57;;
3369;SDS011;42042;51.948;7.628;2023-05-10T09:05:25;37.07;;;22.80;;
3369;SDS011;42042;51.948;7.628;2023-05-10T09:07:53;30.70;;;21.70;;
3369;SDS011;42042;51.948;7.628;2023-05-10T09:10:20;31.17;;;21.40;;
3369;SDS011;42042;51.948;7.628;2023-05-10T09:12:49;29.20;;;21.07;;
3369;SDS011;42042;51.948;7.628;2023-05-10T09:15:16;31.67;;;22.27;;
3369;SDS011;42042;51.948;7.628;2023-05-10T09:17:45;34.33;;;22.73;;
3369;SDS011;42042;51.948;7.628;2023-05-10T09:20:12;32.57;;;22.80;;
3369;SDS011;42042;51.948;7.628;2023-05-10T09:22:39;28.50;;;19.07;;
3369;SDS011;42042;51.948;7.628;2023-05-10T09:25:07;29.73;;;19.60;;
3369;SDS011;42042;51.948;7.628;2023-05-10T09:27:36;26.37;;;18.17;;
3369;SDS011;42042;51.948;7.628;2023-05-10T09:30:05;23.97;;;16.87;;
3369;SDS011;42042;51.948;7.628;2023-05-10T09:32:36;21.73;;;16.33;;
3369;SDS011;42042;51.948;7.628;2023-05-10T09:35:07;23.53;;;14.67;;
3369;SDS011;42042;51.948;7.628;2023-05-10T09:37:34;23.67;;;15.60;;
3369;SDS011;42042;51.948;7.628;2023-05-10T09:40:04;20.57;;;15.73;;
3369;SDS011;42042;51.948;7.628;2023-05-10T09:42:31;19.63;;;15.40;;
3369;SDS011;42042;51.948;7.628;2023-05-10T09:45:00;27.03;;;18.20;;
3369;SDS011;42042;51.948;7.628;2023-05-10T09:47:28;24.57;;;16.93;;
3369;SDS011;42042;51.948;7.628;2023-05-10T09:49:56;27.43;;;17.70;;
3369;SDS011;42042;51.948;7.628;2023-05-10T09:52:28;26.73;;;18.00;;
3369;SDS011;42042;51.948;7.628;2023-05-10T09:54:55;26.13;;;20.50;;
3369;SDS011;42042;51.948;7.628;2023-05-10T09:57:23;26.73;;;17.23;;
3369;SDS011;42042;51.948;7.628;2023-05-10T09:59:51;24.90;;;18.00;;
3369;SDS011;42042;51.948;7.628;2023-05-10T10:02:19;29.50;;;18.20;;
3369;SDS011;42042;51.948;7.628;2023-05-10T10:04:50;26.27;;;17.83;;
3369;SDS011;42042;51.948;7.628;2023-05-10T10:07:20;26.80;;;18.13;;
3369;SDS011;42042;51.948;7.628;2023-05-10T10:09:49;26.30;;;17.70;;
3369;SDS011;42042;51.948;7.628;2023-05-10T10:12:16;23.80;;;15.10;;
3369;SDS011;42042;51.948;7.628;2023-05-10T10:14:44;27.60;;;15.13;;
3369;SDS011;42042;51.948;7.628;2023-05-10T10:17:12;22.13;;;16.10;;
3369;SDS011;42042;51.948;7.628;2023-05-10T10:19:40;24.87;;;17.17;;
3369;SDS011;42042;51.948;7.628;2023-05-10T10:22:09;28.57;;;18.43;;
3369;SDS011;42042;51.948;7.628;2023-05-10T10:24:37;25.63;;;16.40;;
3369;SDS011;42042;51.948;7.628;2023-05-10T10:27:11;24.80;;;16.17;;
3369;SDS011;42042;51.948;7.628;2023-05-10T10:32:24;24.10;;;16.63;;
3369;SDS011;42042;51.948;7.628;2023-05-10T10:34:53;23.87;;;16.10;;
3369;SDS011;42042;51.948;7.628;2023-05-10T10:37:22;27.00;;;15.77;;
3369;SDS011;42042;51.948;7.628;2023-05-10T10:39:49;28.20;;;18.07;;
3369;SDS011;42042;51.948;7.628;2023-05-10T10:45:10;22.70;;;15.67;;
3369;SDS011;42042;51.948;7.628;2023-05-10T10:47:38;21.43;;;15.10;;
3369;SDS011;42042;51.948;7.628;2023-05-10T10:50:06;20.77;;;14.93;;
3369;SDS011;42042;51.948;7.628;2023-05-10T10:52:36;23.33;;;16.60;;
3369;SDS011;42042;51.948;7.628;2023-05-10T10:55:04;25.40;;;17.57;;
3369;SDS011;42042;51.948;7.628;2023-05-10T10:57:35;25.60;;;19.00;;
3369;SDS011;42042;51.948;7.628;2023-05-10T11:00:18;23.60;;;17.23;;
3369;SDS011;42042;51.948;7.628;2023-05-10T11:02:47;22.20;;;15.60;;
3369;SDS011;42042;51.948;7.628;2023-05-10T11:05:24;18.53;;;14.57;;
3369;SDS011;42042;51.948;7.628;2023-05-10T11:07:54;22.70;;;16.03;;
3369;SDS011;42042;51.948;7.628;2023-05-10T11:10:21;19.90;;;16.60;;
3369;SDS011;42042;51.948;7.628;2023-05-10T11:12:51;19.07;;;15.23;;
3369;SDS011;42042;51.948;7.628;2023-05-10T11:15:19;23.10;;;15.90;;
3369;SDS011;42042;51.948;7.628;2023-05-10T11:17:47;24.93;;;18.20;;
3369;SDS011;42042;51.948;7.628;2023-05-10T11:20:17;22.60;;;17.00;;
3369;SDS011;42042;51.948;7.628;2023-05-10T11:22:51;27.60;;;18.00;;
3369;SDS011;42042;51.948;7.628;2023-05-10T11:25:19;21.40;;;14.73;;
3369;SDS011;42042;51.948;7.628;2023-05-10T11:27:47;19.10;;;14.13;;
3369;SDS011;42042;51.948;7.628;2023-05-10T11:30:14;21.83;;;15.50;;
3369;SDS011;42042;51.948;7.628;2023-05-10T11:32:42;20.20;;;16.27;;
3369;SDS011;42042;51.948;7.628;2023-05-10T11:35:09;18.73;;;14.17;;
3369;SDS011;42042;51.948;7.628;2023-05-10T11:37:37;26.30;;;18.67;;
3369;SDS011;42042;51.948;7.628;2023-05-10T11:40:09;27.40;;;19.37;;
3369;SDS011;42042;51.948;7.628;2023-05-10T11:42:38;25.03;;;17.33;;
3369;SDS011;42042;51.948;7.628;2023-05-10T11:45:05;20.37;;;17.00;;
3369;SDS011;42042;51.948;7.628;2023-05-10T11:47:33;21.37;;;15.60;;
3369;SDS011;42042;51.948;7.628;2023-05-10T11:50:02;23.00;;;16.50;;
3369;SDS011;42042;51.948;7.628;2023-05-10T11:52:29;20.47;;;13.63;;
3369;SDS011;42042;51.948;7.628;2023-05-10T11:55:02;24.47;;;15.40;;
3369;SDS011;42042;51.948;7.628;2023-05-10T11:57:30;20.20;;;15.40;;
3369;SDS011;42042;51.948;7.628;2023-05-10T11:59:58;24.30;;;15.93;;
3369;SDS011;42042;51.948;7.628;2023-05-10T12:02:28;24.30;;;17.53;;
3369;SDS011;42042;51.948;7.628;2023-05-10T12:04:56;23.37;;;16.77;;
3369;SDS011;42042;51.948;7.628;2023-05-10T12:07:23;24.57;;;16.37;;
3369;SDS011;42042;51.948;7.628;2023-05-10T12:10:03;23.43;;;16.63;;
3369;SDS011;42042;51.948;7.628;2023-05-10T12:12:35;20.33;;;16.30;;
3369;SDS011;42042;51.948;7.628;2023-05-10T12:15:04;25.93;;;16.30;;
3369;SDS011;42042;51.948;7.628;2023-05-10T12:17:31;28.73;;;17.70;;
3369;SDS011;42042;51.948;7.628;2023-05-10T12:19:59;19.60;;;15.97;;
3369;SDS011;42042;51.948;7.628;2023-05-10T12:22:26;24.40;;;17.03;;
3369;SDS011;42042;51.948;7.628;2023-05-10T12:24:54;20.47;;;15.47;;
3369;SDS011;42042;51.948;7.628;2023-05-10T12:27:21;23.47;;;15.83;;
3369;SDS011;42042;51.948;7.628;2023-05-10T12:29:48;21.33;;;16.63;;
3369;SDS011;42042;51.948;7.628;2023-05-10T12:32:16;21.60;;;15.13;;
3369;SDS011;42042;51.948;7.628;2023-05-10T12:34:44;17.97;;;15.10;;
3369;SDS011;42042;51.948;7.628;2023-05-10T12:37:13;21.80;;;14.73;;
3369;SDS011;42042;51.948;7.628;2023-05-10T12:39:41;18.83;;;14.60;;
3369;SDS011;42042;51.948;7.628;2023-05-10T12:42:09;18.90;;;15.13;;
3369;SDS011;42042;51.948;7.628;2023-05-10T12:44:36;17.10;;;14.33;;
3369;SDS011;42042;51.948;7.628;2023-05-10T12:47:03;15.93;;;13.90;;
3369;SDS011;42042;51.948;7.628;2023-05-10T12:49:32;23.50;;;13.57;;
3369;SDS011;42042;51.948;7.628;2023-05-10T12:51:59;15.33;;;11.63;;
3369;SDS011;42042;51.948;7.628;2023-05-10T12:54:33;13.73;;;9.47;;
3369;SDS011;42042;51.948;7.628;2023-05-10T12:57:00;13.90;;;10.43;;
3369;SDS011;42042;51.948;7.628;2023-05-10T12:59:27;13.37;;;10.60;;
3369;SDS011;42042;51.948;7.628;2023-05-10T13:01:54;15.03;;;11.73;;
3369;SDS011;42042;51.948;7.628;2023-05-10T13:04:21;12.07;;;10.63;;
3369;SDS011;42042;51.948;7.628;2023-05-10T13:06:50;14.70;;;11.10;;
3369;SDS011;42042;51.948;7.628;2023-05-10T13:09:17;14.73;;;10.97;;
3369;SDS011;42042;51.948;7.628;2023-05-10T13:11:45;11.73;;;10.20;;
3369;SDS011;42042;51.948;7.628;2023-05-10T13:14:13;13.07;;;10.00;;
3369;SDS011;42042;51.948;7.628;2023-05-10T13:16:40;12.60;;;10.70;;
3369;SDS011;42042;51.948;7.628;2023-05-10T13:19:07;13.90;;;10.93;;
3369;SDS011;42042;51.948;7.628;2023-05-10T13:21:34;11.23;;;10.00;;
3369;SDS011;42042;51.948;7.628;2023-05-10T13:24:03;12.33;;;10.00;;
3369;SDS011;42042;51.948;7.628;2023-05-10T13:26:30;16.37;;;12.20;;
3369;SDS011;42042;51.948;7.628;2023-05-10T13:28:57;17.53;;;13.40;;
3369;SDS011;42042;51.948;7.628;2023-05-10T13:31:25;15.07;;;12.00;;
3369;SDS011;42042;51.948;7.628;2023-05-10T13:33:52;17.40;;;12.77;;
3369;SDS011;42042;51.948;7.628;2023-05-10T13:36:19;17.00;;;11.23;;
3369;SDS011;42042;51.948;7.628;2023-05-10T13:38:47;17.00;;;12.13;;
3369;SDS011;42042;51.948;7.628;2023-05-10T13:41:16;19.90;;;14.83;;
3369;SDS011;42042;51.948;7.628;2023-05-10T13:43:43;16.87;;;13.83;;
3369;SDS011;42042;51.948;7.628;2023-05-10T13:46:10;17.53;;;14.03;;
3369;SDS011;42042;51.948;7.628;2023-05-10T13:48:38;19.93;;;15.40;;
3369;SDS011;42042;51.948;7.628;2023-05-10T13:51:05;26.93;;;17.03;;
3369;SDS011;42042;51.948;7.628;2023-05-10T13:53:32;26.67;;;16.73;;
3369;SDS011;42042;51.948;7.628;2023-05-10T13:55:59;25.37;;;16.33;;
3369;SDS011;42042;51.948;7.628;2023-05-10T13:58:28;22.83;;;16.90;;
3369;SDS011;42042;51.948;7.628;2023-05-10T14:00:55;25.23;;;16.97;;
3369;SDS011;42042;51.948;7.628;2023-05-10T14:03:22;24.80;;;17.87;;
3369;SDS011;42042;51.948;7.628;2023-05-10T14:05:50;28.43;;;18.43;;
3369;SDS011;42042;51.948;7.628;2023-05-10T14:08:18;24.27;;;17.13;;
3369;SDS011;42042;51.948;7.628;2023-05-10T14:10:45;27.40;;;17.60;;
3369;SDS011;42042;51.948;7.628;2023-05-10T14:13:13;28.37;;;17.90;;
3369;SDS011;42042;51.948;7.628;2023-05-10T14:15:42;25.23;;;17.87;;
3369;SDS011;42042;51.948;7.628;2023-05-10T14:20:41;25.67;;;17.40;;
3369;SDS011;42042;51.948;7.628;2023-05-10T14:23:08;23.23;;;17.53;;
3369;SDS011;42042;51.948;7.628;2023-05-10T14:25:35;21.63;;;16.90;;
3369;SDS011;42042;51.948;7.628;2023-05-10T14:28:03;25.10;;;17.50;;
3369;SDS011;42042;51.948;7.628;2023-05-10T14:30:30;21.33;;;16.03;;
3369;SDS011;42042;51.948;7.628;2023-05-10T14:33:00;22.83;;;16.43;;
3369;SDS011;42042;51.948;7.628;2023-05-10T14:35:27;17.73;;;13.83;;
3369;SDS011;42042;51.948;7.628;2023-05-10T14:37:55;21.80;;;15.10;;
3369;SDS011;42042;51.948;7.628;2023-05-10T14:40:23;23.90;;;14.37;;
3369;SDS011;42042;51.948;7.628;2023-05-10T14:42:51;21.77;;;15.10;;
3369;SDS011;42042;51.948;7.628;2023-05-10T14:45:18;21.60;;;14.90;;
3369;SDS011;42042;51.948;7.628;2023-05-10T14:47:46;23.10;;;15.17;;
3369;SDS011;42042;51.948;7.628;2023-05-10T14:50:14;20.13;;;14.47;;
3369;SDS011;42042;51.948;7.628;2023-05-10T14:52:43;24.47;;;16.10;;
3369;SDS011;42042;51.948;7.628;2023-05-10T14:55:10;20.73;;;14.80;;
3369;SDS011;42042;51.948;7.628;2023-05-10T14:57:37;22.40;;;17.33;;
3369;SDS011;42042;51.948;7.628;2023-05-10T15:00:05;21.40;;;15.70;;